Time;durP1;ratioP1;P1;durP2;ratioP2;P2;SDS_P1;SDS_P2;PMS_P1;PMS_P2;Temp;Humidity;BMP_temperature;BMP_pressure;BME280_temperature;BME280_humidity;BME280_pressure;Samples;Min_cycle;Max_cycle;Signal;HPM_P1;HPM_P2
2023/07/07 00:01:09;;;;;;;1.50;0.70;;;;;;;27.58;36.39;101828.34;4979447;28;96985;-78
2023/07/07 00:03:36;;;;;;;0.75;0.60;;;;;;;27.58;36.46;101826.47;4979526;28;97688;-77
2023/07/07 00:06:02;;;;;;;1.02;0.70;;;;;;;27.58;36.45;101820.09;4979942;28;96635;-77
2023/07/07 00:08:29;;;;;;;1.50;0.68;;;;;;;27.58;36.33;101822.84;4978309;28;97072;-78
2023/07/07 00:10:58;;;;;;;0.70;0.50;;;;;;;27.57;36.52;101827.50;4977018;28;97900;-78
2023/07/07 00:13:26;;;;;;;1.17;0.63;;;;;;;27.57;36.20;101835.78;4974693;28;99685;-78
2023/07/07 00:16:00;;;;;;;1.90;0.82;;;;;;;27.58;36.25;101831.13;4977129;28;96747;-78
2023/07/07 00:18:27;;;;;;;0.95;0.75;;;;;;;27.57;36.37;101830.25;4989798;28;96751;-78
2023/07/07 00:20:56;;;;;;;1.17;0.70;;;;;;;27.58;36.46;101831.13;4996113;28;97846;-77
2023/07/07 00:23:24;;;;;;;0.70;0.55;;;;;;;27.57;36.45;101824.75;4997536;28;97248;-77
2023/07/07 00:26:03;;;;;;;0.90;0.65;;;;;;;27.57;36.31;101830.25;4997938;28;97352;-78
2023/07/07 00:28:30;;;;;;;0.95;0.63;;;;;;;27.57;36.41;101829.41;4988584;28;97287;-77
2023/07/07 00:30:57;;;;;;;1.08;0.70;;;;;;;27.56;36.40;101839.59;4992159;28;97866;-78
2023/07/07 00:33:25;;;;;;;1.05;0.77;;;;;;;27.56;36.12;101839.59;4993908;28;99488;-78
2023/07/07 00:35:52;;;;;;;1.77;0.70;;;;;;;27.56;36.30;101842.34;4996365;28;97297;-77
2023/07/07 00:38:19;;;;;;;0.65;0.47;;;;;;;27.56;36.31;101835.97;4997062;28;96912;-77
2023/07/07 00:40:46;;;;;;;0.70;0.60;;;;;;;27.56;36.42;101836.84;4978390;28;96778;-78
2023/07/07 00:43:15;;;;;;;0.95;0.65;;;;;;;27.56;36.25;101825.81;4978117;28;96688;-78
2023/07/07 00:45:42;;;;;;;0.77;0.50;;;;;;;27.55;36.32;101832.38;4997437;28;97719;-77
2023/07/07 00:48:12;;;;;;;1.05;0.70;;;;;;;27.57;36.30;101840.44;4995380;28;96681;-77
2023/07/07 00:50:45;;;;;;;0.93;0.68;;;;;;;27.56;36.35;101834.06;4978553;28;96865;-77
2023/07/07 00:53:12;;;;;;;0.88;0.60;;;;;;;27.54;36.59;101834.28;4994225;28;96875;-78
2023/07/07 00:55:43;;;;;;;0.85;0.68;;;;;;;27.56;36.23;101824.94;4978199;28;99872;-78
2023/07/07 00:58:14;;;;;;;0.90;0.60;;;;;;;27.57;36.37;101834.94;4994790;28;96737;-77
2023/07/07 01:00:44;;;;;;;0.80;0.70;;;;;;;27.55;36.79;101824.09;4994373;28;96657;-78
2023/07/07 01:03:19;;;;;;;0.80;0.60;;;;;;;27.56;36.30;101824.94;4994099;28;98869;-78
2023/07/07 01:05:48;;;;;;;1.25;0.70;;;;;;;27.54;36.21;101822.38;4976807;28;97979;-78
2023/07/07 01:08:16;;;;;;;1.25;0.88;;;;;;;27.56;36.57;101824.94;4993587;28;96856;-77
2023/07/07 01:10:44;;;;;;;0.90;0.70;;;;;;;27.56;36.57;101824.94;4992823;28;96845;-77
2023/07/07 01:13:11;;;;;;;0.85;0.68;;;;;;;27.54;36.24;101820.47;4995093;28;97766;-77
2023/07/07 01:15:50;;;;;;;2.00;0.82;;;;;;;27.56;36.36;101834.06;4995210;28;97298;-77
2023/07/07 01:18:36;;;;;;;0.63;0.57;;;;;;;27.54;36.33;101833.41;4977845;28;96943;-78
2023/07/07 01:21:30;;;;;;;0.80;0.70;;;;;;;27.54;36.17;101836.19;4985179;28;97171;-78
2023/07/07 01:24:10;;;;;;;1.00;0.70;;;;;;;27.52;36.30;101833.63;4994153;28;97150;-77
2023/07/07 01:26:53;;;;;;;0.80;0.68;;;;;;;27.52;36.49;101830.84;4992293;28;98445;-78
2023/07/07 01:29:30;;;;;;;0.90;0.70;;;;;;;27.53;36.32;101840.00;4979530;28;96943;-78
2023/07/07 01:32:08;;;;;;;1.27;0.80;;;;;;;27.53;36.44;101838.09;4983166;28;96680;-78
2023/07/07 01:34:35;;;;;;;1.17;0.90;;;;;;;27.52;36.32;101832.75;4990403;28;98746;-77
2023/07/07 01:37:02;;;;;;;1.17;0.75;;;;;;;27.53;36.27;101840.84;4976688;28;96684;-77
2023/07/07 01:39:28;;;;;;;0.98;0.65;;;;;;;27.53;36.42;101842.75;4975577;28;96662;-77
2023/07/07 01:42:07;;;;;;;0.65;0.60;;;;;;;27.52;36.16;101839.13;4978195;28;97057;-78
2023/07/07 01:45:06;;;;;;;0.60;0.55;;;;;;;27.53;36.36;101840.00;4987994;28;99303;-78
2023/07/07 01:47:36;;;;;;;1.08;0.70;;;;;;;27.50;36.39;101832.97;4984930;28;96973;-78
2023/07/07 01:50:15;;;;;;;0.88;0.60;;;;;;;27.51;36.38;101831.91;4974775;28;97281;-78
2023/07/07 01:53:07;;;;;;;1.17;0.80;;;;;;;27.50;36.45;101819.16;4975202;28;96666;-78
2023/07/07 01:55:39;;;;;;;1.05;0.77;;;;;;;27.50;36.45;101824.69;4972112;28;98962;-77
2023/07/07 01:58:10;;;;;;;1.25;0.85;;;;;;;27.51;36.22;101831.06;4984668;28;98771;-77
2023/07/07 02:00:37;;;;;;;1.02;0.70;;;;;;;27.51;36.32;101831.06;4993833;28;96637;-77
2023/07/07 02:03:08;;;;;;;1.88;0.65;;;;;;;27.51;36.33;101826.38;4989088;28;98635;-78
2023/07/07 02:05:35;;;;;;;0.77;0.57;;;;;;;27.50;36.28;101823.81;4980904;28;96836;-78
2023/07/07 02:08:02;;;;;;;1.90;0.90;;;;;;;27.51;36.30;101820.00;4994415;28;99195;-77
2023/07/07 02:10:28;;;;;;;0.80;0.60;;;;;;;27.50;36.19;101824.69;4980910;28;96865;-77
2023/07/07 02:12:55;;;;;;;0.70;0.60;;;;;;;27.51;36.31;101825.53;4996038;28;96857;-77
2023/07/07 02:15:22;;;;;;;1.02;0.70;;;;;;;27.50;36.26;101813.66;4993298;28;99163;-78
2023/07/07 02:17:49;;;;;;;1.98;1.23;;;;;;;27.50;36.20;101823.81;4993693;28;100925;-77
2023/07/07 02:20:16;;;;;;;0.60;0.43;;;;;;;27.51;36.10;101829.16;4995044;28;96902;-78
2023/07/07 02:22:43;;;;;;;0.98;0.65;;;;;;;27.50;36.27;101829.34;4994291;28;96585;-77
2023/07/07 02:25:10;;;;;;;1.15;0.95;;;;;;;27.50;36.32;101829.34;4994711;28;96896;-78
2023/07/07 02:27:37;;;;;;;1.10;0.70;;;;;;;27.50;36.37;101823.81;4993589;28;96927;-77
2023/07/07 02:30:04;;;;;;;1.15;0.60;;;;;;;27.50;36.24;101830.19;4994401;28;96747;-78
2023/07/07 02:32:31;;;;;;;0.70;0.60;;;;;;;27.50;36.26;101826.59;4993958;28;96837;-78
2023/07/07 02:35:01;;;;;;;1.17;0.70;;;;;;;27.49;36.05;101822.09;4976447;28;96725;-78
2023/07/07 02:37:28;;;;;;;0.98;0.80;;;;;;;27.50;36.11;101824.69;4977155;28;100063;-78
2023/07/07 02:39:54;;;;;;;1.02;0.75;;;;;;;27.50;36.40;101832.97;4979372;28;96776;-78
2023/07/07 02:42:21;;;;;;;0.90;0.70;;;;;;;27.49;36.39;101825.69;4984438;28;96885;-77
2023/07/07 02:44:48;;;;;;;1.05;0.60;;;;;;;27.49;36.38;101830.38;4987022;28;100187;-78
2023/07/07 02:47:15;;;;;;;1.10;0.77;;;;;;;27.48;36.44;101831.41;4997563;28;97106;-78
2023/07/07 02:49:41;;;;;;;1.10;0.70;;;;;;;27.48;36.29;101834.16;4980621;28;96771;-77
2023/07/07 02:52:08;;;;;;;1.00;0.68;;;;;;;27.50;36.39;101837.63;4998149;28;96651;-78
2023/07/07 02:54:35;;;;;;;0.90;0.70;;;;;;;27.49;36.72;101833.13;4996177;28;100959;-77
2023/07/07 02:57:02;;;;;;;1.20;0.75;;;;;;;27.49;36.25;101835.88;4995232;28;99086;-77
2023/07/07 02:59:29;;;;;;;1.40;0.90;;;;;;;27.49;36.25;101838.63;4996365;28;96724;-77
2023/07/07 03:01:56;;;;;;;0.80;0.70;;;;;;;27.48;36.28;101843.31;4996501;28;96758;-77
2023/07/07 03:04:24;;;;;;;1.17;0.80;;;;;;;27.47;36.29;101847.13;4999015;28;97246;-78
2023/07/07 03:06:51;;;;;;;1.33;0.93;;;;;;;27.48;36.27;101850.72;4992435;28;97327;-78
2023/07/07 03:09:18;;;;;;;0.85;0.70;;;;;;;27.48;36.34;101848.81;4975970;28;97211;-77
2023/07/07 03:11:46;;;;;;;1.17;0.70;;;;;;;27.48;36.37;101847.97;4978048;28;96924;-78
2023/07/07 03:14:17;;;;;;;0.88;0.73;;;;;;;27.48;36.31;101847.97;4989332;28;96935;-77
2023/07/07 03:16:47;;;;;;;0.85;0.70;;;;;;;27.46;36.26;101845.41;4977926;28;96850;-78
2023/07/07 03:19:19;;;;;;;1.50;0.95;;;;;;;27.46;36.23;101845.41;4991099;28;96932;-78
2023/07/07 03:22:00;;;;;;;1.10;0.80;;;;;;;27.45;36.28;101843.69;4996172;28;96970;-78
2023/07/07 03:24:36;;;;;;;1.40;0.85;;;;;;;27.45;36.44;101849.22;4993987;28;100589;-77
2023/07/07 03:27:11;;;;;;;0.90;0.80;;;;;;;27.45;36.27;101851.97;4983495;28;98922;-77
2023/07/07 03:29:40;;;;;;;0.70;0.70;;;;;;;27.45;36.29;101857.50;4980869;28;96761;-78
2023/07/07 03:32:08;;;;;;;1.00;0.60;;;;;;;27.45;36.27;101856.63;4978590;28;96426;-78
2023/07/07 03:34:41;;;;;;;1.15;0.75;;;;;;;27.46;36.36;101861.09;4979272;28;97007;-78
2023/07/07 03:37:09;;;;;;;1.88;0.68;;;;;;;27.44;36.28;101858.53;4979553;28;96876;-78
2023/07/07 03:39:37;;;;;;;0.98;0.88;;;;;;;27.45;36.18;101862.16;4980052;28;96914;-77
2023/07/07 03:42:04;;;;;;;0.55;0.50;;;;;;;27.46;36.26;101856.44;4981258;28;96902;-77
2023/07/07 03:44:31;;;;;;;0.93;0.80;;;;;;;27.45;36.22;101854.72;4978396;28;96877;-77
2023/07/07 03:46:58;;;;;;;1.30;0.80;;;;;;;27.44;36.22;101853.03;4961059;28;98566;-78
2023/07/07 03:49:25;;;;;;;0.73;0.70;;;;;;;27.45;36.01;101853.88;4979047;28;96682;-78
2023/07/07 03:51:51;;;;;;;0.60;0.60;;;;;;;27.45;36.28;101857.50;4979006;28;97439;-78
2023/07/07 03:54:18;;;;;;;1.55;0.90;;;;;;;27.45;36.17;101853.88;4994231;28;101139;-78
2023/07/07 03:56:45;;;;;;;0.70;0.60;;;;;;;27.45;36.24;101860.25;4961316;28;100426;-78
2023/07/07 03:59:12;;;;;;;1.30;0.90;;;;;;;27.45;36.25;101856.63;4995501;28;96842;-77
2023/07/07 04:01:38;;;;;;;1.05;0.65;;;;;;;27.45;36.03;101862.16;4993901;28;96892;-78
2023/07/07 04:04:05;;;;;;;0.90;0.80;;;;;;;27.44;36.11;101866.81;4977173;28;97258;-78
2023/07/07 04:06:33;;;;;;;1.27;0.90;;;;;;;27.43;36.24;101870.63;4993173;28;96658;-78
2023/07/07 04:09:00;;;;;;;1.23;0.70;;;;;;;27.45;36.24;101862.16;4981054;28;97117;-78
2023/07/07 04:11:27;;;;;;;0.90;0.70;;;;;;;27.44;36.28;101869.56;4997198;28;96736;-78
2023/07/07 04:13:53;;;;;;;1.52;0.88;;;;;;;27.45;36.27;101870.44;4976751;28;98591;-78
2023/07/07 04:16:23;;;;;;;1.08;0.88;;;;;;;27.44;36.27;101869.56;4977975;28;97110;-77
2023/07/07 04:18:53;;;;;;;1.05;0.77;;;;;;;27.44;35.90;101868.72;4979387;28;96984;-78
2023/07/07 04:21:22;;;;;;;1.15;0.90;;;;;;;27.44;36.11;101877.00;4980051;28;96658;-77
2023/07/07 04:23:58;;;;;;;1.08;0.75;;;;;;;27.44;36.16;101869.56;4977737;28;97687;-77
2023/07/07 04:26:27;;;;;;;0.80;0.70;;;;;;;27.44;36.25;101874.25;4979217;28;97218;-78
2023/07/07 04:28:54;;;;;;;1.08;0.90;;;;;;;27.43;36.11;101875.28;4977550;28;96743;-77
2023/07/07 04:31:25;;;;;;;1.58;0.80;;;;;;;27.44;36.18;101874.25;4979832;28;96607;-78
2023/07/07 04:33:53;;;;;;;0.93;0.75;;;;;;;27.43;36.12;101878.91;4991476;28;96838;-78
2023/07/07 04:36:20;;;;;;;1.40;0.77;;;;;;;27.43;36.30;101876.16;4980272;28;97041;-77
2023/07/07 04:38:48;;;;;;;0.77;0.70;;;;;;;27.43;36.19;101878.06;4996734;28;96732;-78
2023/07/07 04:41:22;;;;;;;1.30;0.75;;;;;;;27.43;36.16;101881.66;4997441;28;97000;-77
2023/07/07 04:43:52;;;;;;;1.77;0.70;;;;;;;27.42;36.35;101876.34;4996688;28;96804;-78
2023/07/07 04:46:39;;;;;;;1.05;0.73;;;;;;;27.43;36.28;101881.66;4996626;28;97959;-78
2023/07/07 04:49:07;;;;;;;0.73;0.70;;;;;;;27.42;36.14;101874.44;4975005;28;96651;-77
2023/07/07 04:51:35;;;;;;;0.98;0.80;;;;;;;27.42;36.33;101876.34;4971675;28;96753;-78
2023/07/07 04:54:06;;;;;;;1.10;0.90;;;;;;;27.43;36.11;101875.28;4981984;28;98769;-77
2023/07/07 04:56:35;;;;;;;1.40;0.80;;;;;;;27.43;36.13;101876.16;4984400;28;97340;-78
2023/07/07 04:59:04;;;;;;;1.00;0.82;;;;;;;27.43;36.08;101878.06;4969946;28;96722;-78
2023/07/07 05:01:31;;;;;;;1.33;0.70;;;;;;;27.43;36.02;101880.81;4971517;28;97177;-77
2023/07/07 05:04:00;;;;;;;1.33;0.85;;;;;;;27.42;36.11;101879.97;4986967;28;96897;-78
2023/07/07 05:06:30;;;;;;;0.80;0.70;;;;;;;27.42;36.07;101888.22;4998767;28;96746;-78
2023/07/07 05:08:57;;;;;;;0.93;0.70;;;;;;;27.43;35.95;101883.56;5001691;28;96613;-78
2023/07/07 05:11:27;;;;;;;1.00;0.90;;;;;;;27.43;36.16;101881.66;5002218;28;96629;-78
2023/07/07 05:13:54;;;;;;;1.02;0.93;;;;;;;27.43;36.01;101878.06;4999927;28;96687;-78
2023/07/07 05:16:24;;;;;;;0.98;0.70;;;;;;;27.44;36.15;101883.38;4998361;28;97315;-77
2023/07/07 05:18:52;;;;;;;1.00;0.82;;;;;;;27.43;36.17;101883.56;5000495;28;96738;-78
2023/07/07 05:21:20;;;;;;;1.60;0.88;;;;;;;27.43;35.96;101886.31;4999959;28;96617;-77
2023/07/07 05:23:47;;;;;;;2.05;0.80;;;;;;;27.43;36.24;101884.41;4981672;28;100234;-78
2023/07/07 05:26:14;;;;;;;1.35;0.90;;;;;;;27.43;35.85;101884.41;4999524;28;96912;-78
2023/07/07 05:28:40;;;;;;;0.80;0.60;;;;;;;27.44;36.22;101885.28;4997986;28;96626;-77
2023/07/07 05:31:08;;;;;;;0.82;0.65;;;;;;;27.43;36.07;101886.31;5000108;28;96828;-78
2023/07/07 05:33:38;;;;;;;0.90;0.68;;;;;;;27.44;36.11;101888.88;5000305;28;97408;-78
2023/07/07 05:36:08;;;;;;;1.00;0.88;;;;;;;27.44;36.28;101890.78;4998342;28;97385;-77
2023/07/07 05:38:38;;;;;;;1.42;0.98;;;;;;;27.44;36.34;101888.88;4996596;28;97116;-77
2023/07/07 05:41:05;;;;;;;1.00;0.80;;;;;;;27.43;36.16;101889.94;4985523;28;97237;-78
2023/07/07 05:43:31;;;;;;;0.80;0.60;;;;;;;27.44;35.95;101888.88;4980156;28;98102;-77
2023/07/07 05:46:03;;;;;;;1.40;0.98;;;;;;;27.46;36.07;101894.22;4990862;28;96784;-78
2023/07/07 05:48:31;;;;;;;0.85;0.77;;;;;;;27.43;36.00;101895.47;4992236;28;96671;-78
2023/07/07 05:51:00;;;;;;;0.75;0.70;;;;;;;27.45;36.10;101904.41;4978192;28;96751;-77
2023/07/07 05:53:27;;;;;;;1.52;0.88;;;;;;;27.44;35.89;101896.31;4980078;28;97615;-77
2023/07/07 05:56:03;;;;;;;1.52;0.70;;;;;;;27.46;36.13;101884.03;4979740;28;99756;-78
2023/07/07 05:58:30;;;;;;;1.30;0.90;;;;;;;27.44;36.25;101888.88;4996627;28;97407;-77
2023/07/07 06:00:57;;;;;;;1.52;1.10;;;;;;;27.44;36.07;101888.88;4978710;28;96872;-78
2023/07/07 06:03:24;;;;;;;1.02;0.60;;;;;;;27.45;36.19;101892.50;4978053;28;96778;-78
2023/07/07 06:05:51;;;;;;;1.75;0.75;;;;;;;27.45;36.22;101884.22;4988308;28;97594;-78
2023/07/07 06:08:17;;;;;;;0.80;0.77;;;;;;;27.45;35.90;101882.31;4994378;28;96714;-78
2023/07/07 06:10:51;;;;;;;1.80;0.98;;;;;;;27.46;35.86;101885.94;4976327;28;97189;-78
2023/07/07 06:13:23;;;;;;;0.90;0.80;;;;;;;27.45;35.76;101892.50;4993357;28;97021;-77
2023/07/07 06:15:51;;;;;;;1.00;0.90;;;;;;;27.45;36.03;101889.75;4979618;28;100775;-77
2023/07/07 06:18:19;;;;;;;0.82;0.82;;;;;;;27.45;36.09;101886.97;4976853;28;96899;-77
2023/07/07 06:20:55;;;;;;;1.00;0.70;;;;;;;27.47;36.11;101893.16;4989455;28;97069;-78
2023/07/07 06:23:22;;;;;;;0.90;0.70;;;;;;;27.45;36.23;101892.50;4976488;28;97982;-78
2023/07/07 06:25:49;;;;;;;1.05;0.80;;;;;;;27.45;36.21;101887.84;4991449;28;96658;-78
2023/07/07 06:28:16;;;;;;;0.73;0.63;;;;;;;27.46;36.03;101894.22;4996523;28;96801;-77
2023/07/07 06:30:43;;;;;;;1.10;0.93;;;;;;;27.46;36.15;101888.69;4995356;28;97165;-78
2023/07/07 06:33:10;;;;;;;1.30;0.80;;;;;;;27.46;36.26;101884.03;4977118;28;96728;-78
2023/07/07 06:35:37;;;;;;;2.00;0.80;;;;;;;27.46;36.06;101895.06;5004901;28;98257;-78
2023/07/07 06:38:05;;;;;;;1.00;0.70;;;;;;;27.47;36.32;101894.03;4976056;28;97204;-78
2023/07/07 06:40:31;;;;;;;1.35;0.80;;;;;;;27.47;36.18;101890.41;4980051;28;96636;-78
2023/07/07 06:42:58;;;;;;;0.90;0.80;;;;;;;27.47;36.06;101895.94;4976727;28;97955;-78
2023/07/07 06:45:25;;;;;;;1.05;0.90;;;;;;;27.47;36.14;101895.94;4978832;28;98262;-77
2023/07/07 06:47:52;;;;;;;0.98;0.80;;;;;;;27.48;36.22;101905.91;4986718;28;96704;-78
2023/07/07 06:50:27;;;;;;;0.95;0.80;;;;;;;27.49;36.25;101907.63;4985103;28;96816;-77
2023/07/07 06:52:54;;;;;;;1.48;0.60;;;;;;;27.47;36.38;101902.28;4979238;28;96755;-77
2023/07/07 06:55:21;;;;;;;1.83;0.85;;;;;;;27.48;36.22;101898.50;4980306;28;97254;-78
2023/07/07 06:57:48;;;;;;;1.20;0.90;;;;;;;27.48;35.99;101904.00;4979315;28;96639;-77
2023/07/07 07:00:15;;;;;;;1.75;0.88;;;;;;;27.49;36.15;101904.88;4980408;28;97286;-78
2023/07/07 07:02:43;;;;;;;1.15;0.90;;;;;;;27.49;36.10;101904.88;4978212;28;97672;-78
2023/07/07 07:05:10;;;;;;;0.82;0.70;;;;;;;27.48;36.44;101904.00;4984335;28;96746;-78
2023/07/07 07:07:37;;;;;;;0.85;0.75;;;;;;;27.48;36.16;101911.44;4992183;28;96740;-77
2023/07/07 07:10:05;;;;;;;0.98;0.80;;;;;;;27.49;36.42;101910.38;4981973;28;97396;-78
2023/07/07 07:12:31;;;;;;;1.77;1.05;;;;;;;27.49;36.40;101902.97;4994719;28;97047;-77
2023/07/07 07:14:58;;;;;;;1.20;0.70;;;;;;;27.50;36.28;101910.22;4981785;28;96754;-77
2023/07/07 07:17:25;;;;;;;0.98;0.85;;;;;;;27.50;36.31;101909.38;4994274;28;97298;-78
2023/07/07 07:19:52;;;;;;;1.10;0.80;;;;;;;27.51;36.28;101911.06;4993442;28;96634;-78
2023/07/07 07:22:19;;;;;;;0.80;0.70;;;;;;;27.51;36.32;101911.06;4998456;28;96749;-78
2023/07/07 07:24:46;;;;;;;0.82;0.70;;;;;;;27.51;36.04;101908.31;4997097;28;96719;-77
2023/07/07 07:27:12;;;;;;;1.95;0.80;;;;;;;27.50;36.32;101912.13;4997228;28;96698;-78
2023/07/07 07:29:42;;;;;;;1.27;0.90;;;;;;;27.52;36.19;101915.53;4996190;28;97123;-77
2023/07/07 07:32:10;;;;;;;1.48;1.02;;;;;;;27.51;36.31;101911.06;4997935;28;96817;-77
2023/07/07 07:34:37;;;;;;;1.17;0.90;;;;;;;27.51;36.56;101914.69;4963832;28;97666;-77
2023/07/07 07:37:04;;;;;;;0.95;0.80;;;;;;;27.53;36.39;101920.00;4991523;28;96740;-77
2023/07/07 07:39:32;;;;;;;0.90;0.80;;;;;;;27.52;36.27;101919.16;4997290;28;96801;-78
2023/07/07 07:41:58;;;;;;;1.48;0.80;;;;;;;27.52;36.27;101915.53;4992266;28;96953;-78
2023/07/07 07:44:25;;;;;;;1.00;0.80;;;;;;;27.52;36.51;101921.91;4991099;28;97217;-78
2023/07/07 07:46:55;;;;;;;1.33;0.85;;;;;;;27.53;36.19;101915.34;4997728;28;96829;-77
2023/07/07 07:49:24;;;;;;;1.00;0.80;;;;;;;27.54;36.25;101921.72;4984938;28;96779;-77
2023/07/07 07:51:50;;;;;;;0.80;0.70;;;;;;;27.53;36.52;101920.00;4996506;28;96869;-77
2023/07/07 07:54:19;;;;;;;1.05;0.70;;;;;;;27.53;36.32;101925.53;4996447;28;96792;-78
2023/07/07 07:56:46;;;;;;;1.20;0.88;;;;;;;27.54;36.41;101924.47;4995622;28;96725;-77
2023/07/07 07:59:13;;;;;;;1.00;0.80;;;;;;;27.54;36.32;101924.47;4997082;28;96675;-78
2023/07/07 08:01:40;;;;;;;0.90;0.70;;;;;;;27.54;36.44;101932.75;4995610;28;99432;-77
2023/07/07 08:04:07;;;;;;;0.80;0.60;;;;;;;27.55;36.59;101923.44;4996598;28;97281;-77
2023/07/07 08:06:34;;;;;;;1.30;0.73;;;;;;;27.57;36.26;101926.00;4993551;28;97131;-78
2023/07/07 08:09:03;;;;;;;1.20;0.90;;;;;;;27.56;36.45;101925.13;4988072;28;96868;-77
2023/07/07 08:11:41;;;;;;;1.65;1.00;;;;;;;27.58;36.46;101922.19;4988904;28;96814;-77
2023/07/07 08:14:20;;;;;;;0.70;0.50;;;;;;;27.57;36.37;101932.38;4989088;28;97578;-77
2023/07/07 08:16:48;;;;;;;0.98;0.80;;;;;;;27.56;36.24;101927.91;4986475;28;96574;-78
2023/07/07 08:19:15;;;;;;;1.45;0.90;;;;;;;27.57;36.35;101926.00;4991588;28;96868;-78
2023/07/07 08:21:46;;;;;;;1.42;0.90;;;;;;;27.57;36.48;101926.84;4988647;28;97852;-78
2023/07/07 08:24:13;;;;;;;1.10;0.70;;;;;;;27.58;36.52;101924.94;4994640;28;99387;-78
2023/07/07 08:26:40;;;;;;;1.27;0.60;;;;;;;27.57;36.48;101937.88;4988285;28;97722;-77
2023/07/07 08:29:07;;;;;;;1.25;0.80;;;;;;;27.59;36.46;101932.19;4997763;28;96703;-77
2023/07/07 08:31:33;;;;;;;1.27;0.80;;;;;;;27.59;36.40;101927.50;4998894;28;96828;-76
2023/07/07 08:34:00;;;;;;;1.08;0.70;;;;;;;27.60;36.75;101928.38;5000844;28;96744;-77
2023/07/07 08:36:29;;;;;;;1.13;0.80;;;;;;;27.60;36.41;101933.88;4999023;28;96674;-78
2023/07/07 08:39:07;;;;;;;1.00;0.60;;;;;;;27.60;36.22;101929.22;4992776;28;96699;-78
2023/07/07 08:41:34;;;;;;;0.80;0.73;;;;;;;27.59;36.46;101921.13;5002580;28;96431;-77
2023/07/07 08:44:00;;;;;;;0.88;0.60;;;;;;;27.61;36.39;101927.34;4977333;28;97397;-78
2023/07/07 08:46:43;;;;;;;0.95;0.70;;;;;;;27.62;36.51;101927.16;4978332;28;97150;-77
2023/07/07 08:49:20;;;;;;;1.00;0.60;;;;;;;27.61;36.66;101928.19;4976175;28;96768;-77
2023/07/07 08:51:58;;;;;;;0.85;0.70;;;;;;;27.61;36.56;101928.19;4976568;28;99393;-77
2023/07/07 08:54:48;;;;;;;0.90;0.70;;;;;;;27.62;36.47;101931.81;4971463;28;100950;-78
2023/07/07 08:57:17;;;;;;;1.85;0.77;;;;;;;27.61;36.45;101930.09;4989256;28;96720;-78
2023/07/07 08:59:59;;;;;;;0.80;0.73;;;;;;;27.64;36.54;101932.47;4975292;28;96925;-77
2023/07/07 09:02:50;;;;;;;1.23;0.70;;;;;;;27.62;36.62;101920.78;4976313;28;98016;-78
2023/07/07 09:05:30;;;;;;;1.23;0.80;;;;;;;27.61;36.62;101925.44;4980418;28;98231;-78
2023/07/07 09:08:34;;;;;;;1.10;0.90;;;;;;;27.62;36.57;101923.53;4980605;28;96783;-77
2023/07/07 09:11:33;;;;;;;1.63;0.80;;;;;;;27.62;36.49;101927.16;4967366;28;96904;-77
2023/07/07 09:14:00;;;;;;;0.73;0.70;;;;;;;27.60;36.62;101922.84;4984109;28;98547;-77
2023/07/07 09:16:34;;;;;;;0.75;0.70;;;;;;;27.62;36.52;101932.69;4977864;28;96718;-78
2023/07/07 09:19:13;;;;;;;0.85;0.70;;;;;;;27.64;36.56;101930.56;4977901;28;96708;-78
2023/07/07 09:21:47;;;;;;;0.82;0.73;;;;;;;27.62;36.81;101918.88;4991031;28;96986;-77
2023/07/07 09:24:37;;;;;;;1.00;0.80;;;;;;;27.62;36.69;101924.41;4976073;28;97917;-78
2023/07/07 09:27:13;;;;;;;0.82;0.68;;;;;;;27.64;36.58;101918.69;4995129;28;96654;-77
2023/07/07 09:29:39;;;;;;;1.23;0.70;;;;;;;27.62;36.67;101927.16;4977590;28;96705;-77
2023/07/07 09:32:11;;;;;;;1.25;0.80;;;;;;;27.66;36.51;101919.34;4974769;28;96872;-78
2023/07/07 09:34:39;;;;;;;1.17;0.70;;;;;;;27.64;36.55;101919.53;4980990;28;98659;-78
2023/07/07 09:37:31;;;;;;;1.00;0.70;;;;;;;27.67;36.53;101916.38;4976602;28;99076;-77
2023/07/07 09:40:11;;;;;;;0.93;0.60;;;;;;;27.66;36.44;101916.56;4994198;28;96722;-78
2023/07/07 09:43:10;;;;;;;0.90;0.60;;;;;;;27.66;36.57;101911.91;4983178;28;97503;-78
2023/07/07 09:45:46;;;;;;;1.00;0.88;;;;;;;27.66;36.55;101914.69;4987368;28;96811;-77
2023/07/07 09:48:31;;;;;;;1.13;0.70;;;;;;;27.66;36.65;101914.69;4986564;28;97348;-78
2023/07/07 09:51:22;;;;;;;1.10;0.90;;;;;;;27.66;36.59;101909.16;4985120;28;96718;-78
2023/07/07 09:53:49;;;;;;;1.05;0.73;;;;;;;27.66;36.44;101908.31;5007676;28;97192;-78
2023/07/07 09:56:21;;;;;;;0.98;0.70;;;;;;;27.67;36.49;101908.09;4992609;28;98377;-77
2023/07/07 09:58:57;;;;;;;0.85;0.65;;;;;;;27.67;36.64;101910.00;4990221;28;97520;-78
2023/07/07 10:01:29;;;;;;;1.00;0.90;;;;;;;27.67;36.59;101905.34;4993682;28;96947;-78
2023/07/07 10:03:58;;;;;;;0.70;0.70;;;;;;;27.68;36.54;101898.78;4997495;28;96912;-77
2023/07/07 10:06:36;;;;;;;1.30;0.85;;;;;;;27.69;36.41;101903.25;4997311;28;96738;-78
2023/07/07 10:09:03;;;;;;;1.45;0.73;;;;;;;27.69;36.25;101905.16;4990382;28;96761;-78
2023/07/07 10:11:39;;;;;;;1.10;0.60;;;;;;;27.69;36.50;101903.25;4979460;28;96632;-77
2023/07/07 10:14:29;;;;;;;1.30;0.70;;;;;;;27.68;36.45;101897.91;4997668;28;97203;-77
2023/07/07 10:17:08;;;;;;;1.13;0.80;;;;;;;27.69;36.40;101897.72;4978882;28;96646;-77
2023/07/07 10:19:57;;;;;;;1.35;0.60;;;;;;;27.69;36.33;101900.47;4979836;28;97104;-78
2023/07/07 10:22:24;;;;;;;1.08;0.70;;;;;;;27.68;36.37;101896.00;4985873;28;96674;-77
2023/07/07 10:24:50;;;;;;;0.90;0.70;;;;;;;27.68;36.36;101893.25;4982026;28;96676;-77
2023/07/07 10:27:20;;;;;;;0.82;0.70;;;;;;;27.69;36.27;101889.44;4982746;28;96791;-78
2023/07/07 10:29:48;;;;;;;0.90;0.60;;;;;;;27.70;36.50;101890.28;4977198;28;97495;-78
2023/07/07 10:32:23;;;;;;;1.38;0.80;;;;;;;27.71;36.54;101892.84;4989727;28;96841;-77
2023/07/07 10:34:57;;;;;;;0.95;0.70;;;;;;;27.71;36.71;101886.47;4976641;28;96787;-77
2023/07/07 10:37:27;;;;;;;2.05;0.98;;;;;;;27.72;36.49;101890.94;4977042;28;96773;-78
2023/07/07 10:39:56;;;;;;;0.70;0.60;;;;;;;27.71;36.41;101887.34;4976467;28;96763;-77
2023/07/07 10:42:24;;;;;;;1.15;0.80;;;;;;;27.71;36.36;101884.56;4960282;28;96766;-77
2023/07/07 10:44:57;;;;;;;1.08;0.60;;;;;;;27.72;36.66;101886.28;4992601;28;96797;-78
2023/07/07 10:47:32;;;;;;;0.80;0.63;;;;;;;27.73;36.48;101884.38;4995060;28;96848;-78
2023/07/07 10:50:00;;;;;;;0.93;0.70;;;;;;;27.72;36.53;101882.66;4994969;28;99364;-78
2023/07/07 10:52:58;;;;;;;1.13;0.80;;;;;;;27.73;36.54;101887.16;4993997;28;96795;-77
2023/07/07 10:56:04;;;;;;;1.33;0.77;;;;;;;27.72;36.33;101879.91;4987615;28;96750;-77
2023/07/07 10:58:50;;;;;;;0.75;0.70;;;;;;;27.70;36.57;101876.50;4979725;28;97387;-77
2023/07/07 11:01:48;;;;;;;0.77;0.60;;;;;;;27.70;36.40;101874.59;4996866;28;97207;-78
2023/07/07 11:04:31;;;;;;;0.80;0.63;;;;;;;27.70;36.60;101873.72;4971366;28;97026;-77
2023/07/07 11:07:00;;;;;;;1.25;0.70;;;;;;;27.70;36.47;101877.34;4994110;28;96819;-78
2023/07/07 11:10:00;;;;;;;0.60;0.60;;;;;;;27.72;36.52;101874.38;4978405;28;96861;-78
2023/07/07 11:12:59;;;;;;;1.17;0.65;;;;;;;27.70;36.47;101880.09;4989412;28;97825;-78
2023/07/07 11:15:32;;;;;;;1.38;0.80;;;;;;;27.69;36.61;101869.28;4985364;28;96582;-77
2023/07/07 11:18:11;;;;;;;0.80;0.70;;;;;;;27.70;36.40;101874.59;4995883;28;96379;-78
2023/07/07 11:21:07;;;;;;;0.77;0.60;;;;;;;27.71;36.48;101872.69;5000054;28;96308;-77
2023/07/07 11:24:09;;;;;;;1.10;0.90;;;;;;;27.70;36.48;101863.53;4987010;28;100600;-78
2023/07/07 11:27:29;;;;;;;1.05;0.82;;;;;;;27.70;36.57;101865.44;4990814;28;96859;-77
2023/07/07 11:30:02;;;;;;;1.02;0.60;;;;;;;27.68;36.59;101864.78;4988820;28;97011;-77
2023/07/07 11:32:47;;;;;;;1.10;0.80;;;;;;;27.71;36.37;101859.75;4998001;28;96694;-78
2023/07/07 11:35:38;;;;;;;0.57;0.50;;;;;;;27.71;36.55;101859.75;4997643;28;96698;-78
2023/07/07 11:38:23;;;;;;;0.95;0.68;;;;;;;27.70;36.48;101846.13;4969889;28;96849;-77
2023/07/07 11:41:17;;;;;;;0.75;0.60;;;;;;;27.72;36.65;101855.06;4981201;28;96966;-78
2023/07/07 11:44:25;;;;;;;1.00;0.60;;;;;;;27.71;36.42;101850.59;4988882;28;97068;-78
2023/07/07 11:47:20;;;;;;;2.15;0.82;;;;;;;27.71;36.35;101848.69;4989024;28;97924;-78